Terminal Aerodrome Forecast
Issued by NWS

Home | Current Version | Previous Version | Text Only | Print | Product List | Glossary On
Versions: 1 2 3 4 5 6 7 8 9 10 11 12 13 14 15
189
FTPA31 PHFO 281130
TAFHKO
TAF
PHKO 281130Z 2812/2912 VRB06KT P6SM FEW025 SCT050
     FM282100 26008KT P6SM VCSH SCT025 BKN050
      TEMPO 2823/2903 5SM -SHRA BKN025 OVC040
     FM290300 VRB06KT 5SM -SHRA SCT025 BKN040=

USA.gov is the U.S. government's official web portal to all federal, state and local government web resources and services.